Time;durP1;ratioP1;P1;durP2;ratioP2;P2;SDS_P1;SDS_P2;PMS_P1;PMS_P2;Temp;Humidity;BMP_temperature;BMP_pressure;BME280_temperature;BME280_humidity;BME280_pressure;Samples;Min_cycle;Max_cycle;Signal;HPM_P1;HPM_P2
2022/01/18 00:01:10;;;;;;;;;28.50;26.00;;;;;22.00;47.89;102961.59;5081408;28;45461;-76
2022/01/18 00:03:36;;;;;;;;;27.50;24.50;;;;;22.00;47.69;102968.69;5082679;28;45552;-76
2022/01/18 00:06:01;;;;;;;;;36.25;29.25;;;;;22.00;48.16;102968.69;5081286;28;45546;-76
2022/01/18 00:08:27;;;;;;;;;33.50;27.75;;;;;21.99;47.96;102954.53;5044111;28;46975;-76
2022/01/18 00:10:52;;;;;;;;;38.25;31.50;;;;;21.97;48.10;102958.94;5038602;28;53497;-76
2022/01/18 00:13:35;;;;;;;;;36.25;30.50;;;;;21.98;47.93;102957.19;5047343;28;45635;-76
2022/01/18 00:18:29;;;;;;;;;33.75;29.50;;;;;21.97;47.50;102956.28;5064337;28;45283;-76
2022/01/18 00:21:13;;;;;;;;;33.00;30.50;;;;;21.96;47.79;102954.50;5081099;28;45239;-76
2022/01/18 00:23:38;;;;;;;;;26.50;24.00;;;;;21.96;47.40;102962.50;5052671;28;45252;-76
2022/01/18 00:26:05;;;;;;;;;30.75;28.75;;;;;21.97;47.68;102955.38;5063934;28;45382;-76
2022/01/18 00:28:31;;;;;;;;;27.50;26.75;;;;;21.95;47.75;102950.09;5060632;28;45503;-76
2022/01/18 00:36:08;;;;;;;;;25.75;23.75;;;;;21.93;47.69;102941.25;5079429;28;45247;-76
2022/01/18 00:38:47;;;;;;;;;31.25;24.25;;;;;21.92;47.77;102931.50;5064213;28;48202;-76
2022/01/18 00:41:14;;;;;;;;;33.00;28.50;;;;;21.92;47.78;102951.88;5034967;28;45272;-76
2022/01/18 00:43:39;;;;;;;;;29.75;24.75;;;;;21.90;47.71;102946.56;5041601;28;45260;-76
2022/01/18 00:46:05;;;;;;;;;24.00;21.25;;;;;21.90;47.56;102938.59;5060493;28;45236;-76
2022/01/18 00:48:33;;;;;;;;;32.75;25.25;;;;;21.88;47.86;102923.50;5060624;28;48502;-76
2022/01/18 00:50:59;;;;;;;;;30.00;24.75;;;;;21.90;47.93;102941.25;5097687;27;45471;-76
2022/01/18 00:53:25;;;;;;;;;29.00;28.50;;;;;21.90;47.66;102938.59;5081742;27;45310;-76
2022/01/18 00:56:40;;;;;;;;;27.00;26.50;;;;;21.89;47.59;102938.56;5080668;27;45417;-76
2022/01/18 00:58:38;;;;;;;;;30.25;25.25;;;;;21.89;47.77;102949.22;5069769;28;45902;-76
2022/01/18 01:01:03;;;;;;;;;28.50;25.75;;;;;21.89;47.45;102934.19;5061434;28;45348;-76
2022/01/18 01:03:29;;;;;;;;;29.75;23.00;;;;;21.89;47.69;102933.25;5079439;28;45273;-76
2022/01/18 01:05:54;;;;;;;;;27.25;24.25;;;;;21.88;47.46;102944.78;5081533;27;48770;-76
2022/01/18 01:08:20;;;;;;;;;30.50;27.25;;;;;21.86;47.51;102934.16;5081495;28;46302;-76
2022/01/18 01:10:45;;;;;;;;;25.50;22.75;;;;;21.87;47.64;102922.63;5081462;27;45207;-76
2022/01/18 01:13:11;;;;;;;;;29.75;23.75;;;;;21.87;47.89;102937.69;5081457;27;45176;-76
2022/01/18 01:15:54;;;;;;;;;28.75;25.75;;;;;21.86;48.05;102941.25;5080350;28;45318;-77
2022/01/18 01:18:38;;;;;;;;;27.00;24.00;;;;;21.85;47.33;102940.38;5062739;28;45551;-76
2022/01/18 01:45:10;;;;;;;;;20.75;17.75;;;;;21.76;47.53;102940.41;5059686;28;45367;-76
2022/01/18 01:47:37;;;;;;;;;24.50;22.00;;;;;21.76;47.26;102935.06;5059370;28;45390;-77
2022/01/18 01:50:04;;;;;;;;;23.50;23.00;;;;;21.77;47.65;102936.84;5059251;28;46078;-76
2022/01/18 01:52:30;;;;;;;;;27.50;23.50;;;;;21.77;46.92;102938.63;5066565;28;45307;-77
2022/01/18 01:54:56;;;;;;;;;29.00;21.50;;;;;21.75;47.30;102929.78;5062736;28;45562;-76
2022/01/18 01:57:21;;;;;;;;;24.00;23.00;;;;;21.76;47.49;102940.41;5079908;28;45350;-77
2022/01/18 01:59:46;;;;;;;;;30.50;25.25;;;;;21.76;47.38;102950.16;5042468;28;48401;-76
2022/01/18 02:02:12;;;;;;;;;26.50;22.75;;;;;21.77;46.84;102941.28;5045260;28;56952;-77
2022/01/18 02:04:37;;;;;;;;;24.00;21.00;;;;;21.76;46.92;102942.16;5062499;28;45313;-76
2022/01/18 02:07:03;;;;;;;;;25.25;22.25;;;;;21.75;47.32;102943.94;5042318;28;45247;-76
2022/01/18 02:09:28;;;;;;;;;24.50;20.25;;;;;21.73;47.01;102941.28;5072069;28;47039;-76
2022/01/18 02:11:56;;;;;;;;;23.00;21.25;;;;;21.73;47.14;102948.38;5058493;28;59244;-76
2022/01/18 02:14:23;;;;;;;;;26.50;20.25;;;;;21.72;47.09;102942.19;5039433;28;45333;-77
2022/01/18 02:22:16;;;;;;;;;23.00;22.25;;;;;21.70;46.73;102940.41;5079638;28;45214;-76
2022/01/18 02:24:41;;;;;;;;;22.00;20.00;;;;;21.71;46.98;102955.44;5058813;28;45520;-76
2022/01/18 02:27:07;;;;;;;;;26.25;22.50;;;;;21.69;46.92;102938.63;5070879;28;45365;-76
2022/01/18 02:29:32;;;;;;;;;23.25;21.25;;;;;21.68;46.89;102935.09;5061931;28;46944;-77
2022/01/18 02:31:58;;;;;;;;;21.75;21.25;;;;;21.69;47.18;102939.50;5062097;28;45543;-77
2022/01/18 02:34:24;;;;;;;;;19.75;17.25;;;;;21.69;46.54;102949.25;5061255;28;58818;-77
2022/01/18 02:36:50;;;;;;;;;25.00;21.75;;;;;21.67;47.06;102943.94;5062273;28;45555;-77
2022/01/18 02:39:24;;;;;;;;;22.75;19.25;;;;;21.67;46.74;102937.75;5058572;28;45437;-76
2022/01/18 02:41:57;;;;;;;;;25.00;19.00;;;;;21.68;46.61;102931.56;5058639;28;45491;-77
2022/01/18 02:44:23;;;;;;;;;22.50;21.25;;;;;21.66;46.31;102944.84;5067414;28;45307;-77
2022/01/18 02:46:48;;;;;;;;;22.00;20.75;;;;;21.66;46.39;102933.34;5080000;27;45447;-76
2022/01/18 02:49:13;;;;;;;;;21.25;20.75;;;;;21.67;46.92;102924.47;5079869;28;45351;-76
2022/01/18 02:51:39;;;;;;;;;21.25;18.25;;;;;21.66;46.99;102936.00;5078667;28;50324;-76
2022/01/18 02:54:06;;;;;;;;;20.75;19.50;;;;;21.65;46.68;102937.75;5058266;27;46477;-76
2022/01/18 02:56:47;;;;;;;;;21.75;21.00;;;;;21.66;46.47;102928.03;5071989;28;45394;-76
2022/01/18 03:04:27;;;;;;;;;20.25;17.50;;;;;21.63;46.31;102923.59;5078869;28;45515;-76
2022/01/18 03:06:53;;;;;;;;;26.00;22.00;;;;;21.64;46.86;102927.16;5078674;28;45482;-76
2022/01/18 03:09:18;;;;;;;;;25.00;20.00;;;;;21.61;47.05;102932.44;5061369;28;52421;-76
2022/01/18 03:11:44;;;;;;;;;20.25;18.50;;;;;21.63;46.72;102909.41;5061694;28;45185;-76
2022/01/18 03:14:09;;;;;;;;;25.25;20.00;;;;;21.63;46.86;102905.00;5061586;28;45284;-76
2022/01/18 03:16:35;;;;;;;;;20.50;20.00;;;;;21.62;46.38;102905.84;5058190;28;45238;-77
2022/01/18 03:19:00;;;;;;;;;21.25;19.75;;;;;21.61;46.36;102897.91;5057708;28;47536;-76
2022/01/18 03:21:26;;;;;;;;;23.00;19.00;;;;;21.61;46.37;102885.50;5056393;28;45184;-77
2022/01/18 03:23:59;;;;;;;;;20.00;17.75;;;;;21.61;46.35;102900.56;5049552;28;45737;-76
2022/01/18 03:26:32;;;;;;;;;20.00;17.75;;;;;21.61;46.42;102892.59;5057949;28;45231;-76
2022/01/18 03:28:57;;;;;;;;;20.50;19.75;;;;;21.60;46.61;102882.84;5076035;28;46266;-75
2022/01/18 03:31:22;;;;;;;;;21.75;19.25;;;;;21.61;46.59;102898.78;5064960;28;45385;-76
2022/01/18 03:33:48;;;;;;;;;22.50;17.75;;;;;21.62;46.41;102891.69;5082643;27;50797;-76
2022/01/18 03:36:13;;;;;;;;;19.50;17.25;;;;;21.60;46.59;102882.84;5082387;27;64007;-76
2022/01/18 03:38:38;;;;;;;;;22.50;20.00;;;;;21.61;46.82;102895.25;5081720;28;53224;-76
2022/01/18 03:41:04;;;;;;;;;21.25;19.50;;;;;21.61;46.64;102896.13;5044169;28;52112;-75
2022/01/18 03:43:30;;;;;;;;;24.00;21.50;;;;;21.62;46.66;102891.69;5057333;28;45310;-76
2022/01/18 03:46:00;;;;;;;;;21.25;17.00;;;;;21.62;46.67;102897.00;5081523;28;45481;-76
2022/01/18 03:48:32;;;;;;;;;21.50;20.75;;;;;21.63;46.40;102898.78;5065302;28;46357;-76
2022/01/18 03:50:58;;;;;;;;;21.00;18.75;;;;;21.62;46.68;102889.91;5061439;28;45402;-75
2022/01/18 03:53:23;;;;;;;;;22.50;19.50;;;;;21.62;46.41;102891.69;5075741;28;45333;-74
2022/01/18 03:55:49;;;;;;;;;21.75;19.25;;;;;21.61;46.46;102898.78;5064477;28;45589;-75
2022/01/18 03:58:14;;;;;;;;;19.25;17.50;;;;;21.62;46.42;102886.38;5044943;28;48391;-75
2022/01/18 04:00:40;;;;;;;;;17.75;15.00;;;;;21.62;46.24;102886.38;5064579;28;45397;-75
2022/01/18 04:03:05;;;;;;;;;23.00;18.75;;;;;21.60;46.62;102898.78;5060328;28;45318;-75
2022/01/18 04:05:31;;;;;;;;;24.50;18.50;;;;;21.62;46.57;102891.69;5064150;28;53250;-75
2022/01/18 04:07:56;;;;;;;;;23.75;19.50;;;;;21.59;46.41;102874.00;5064095;28;51778;-75
2022/01/18 04:10:22;;;;;;;;;17.75;17.25;;;;;21.58;46.53;102888.16;5044179;28;46144;-75
2022/01/18 04:12:47;;;;;;;;;19.00;17.25;;;;;21.58;46.58;102884.63;5058769;28;45294;-75
2022/01/18 04:15:13;;;;;;;;;19.50;17.50;;;;;21.59;46.44;102886.41;5081359;28;45425;-75
2022/01/18 04:30:45;;;;;;;;;18.75;15.75;;;;;21.55;45.79;102882.00;5065034;28;45292;-75
2022/01/18 04:33:11;;;;;;;;;18.25;16.75;;;;;21.56;46.28;102886.41;5080898;28;45261;-75
2022/01/18 04:35:36;;;;;;;;;25.00;19.00;;;;;21.56;45.90;102891.72;5063613;28;53993;-75
2022/01/18 04:38:01;;;;;;;;;15.25;15.25;;;;;21.57;46.32;102888.19;5063089;28;46361;-75
2022/01/18 04:40:30;;;;;;;;;18.00;16.50;;;;;21.55;46.12;102882.00;5062845;28;62020;-75
2022/01/18 04:48:26;;;;;;;;;19.25;18.25;;;;;21.55;45.83;102874.91;5080674;28;45368;-75
2022/01/18 04:51:09;;;;;;;;;19.00;15.75;;;;;21.54;45.82;102872.22;5063152;28;45303;-75
2022/01/18 04:53:37;;;;;;;;;19.50;17.00;;;;;21.55;46.04;102871.34;5039976;28;45410;-75
2022/01/18 04:56:07;;;;;;;;;17.00;16.75;;;;;21.53;46.57;102870.44;5063892;27;45441;-75
2022/01/18 04:58:32;;;;;;;;;20.00;14.50;;;;;21.54;46.10;102874.88;5064634;27;48065;-75
2022/01/18 05:01:01;;;;;;;;;17.75;16.75;;;;;21.53;45.71;102874.00;5080009;28;63346;-75
2022/01/18 05:03:28;;;;;;;;;17.75;14.50;;;;;21.54;46.22;102872.22;5080382;28;45516;-75
2022/01/18 05:05:56;;;;;;;;;17.00;15.00;;;;;21.52;46.27;102874.00;5080587;28;45357;-75
2022/01/18 05:08:22;;;;;;;;;16.25;14.25;;;;;21.52;46.07;102868.69;5080377;28;45297;-75
2022/01/18 05:10:54;;;;;;;;;16.25;16.00;;;;;21.51;45.71;102867.81;5080524;28;45417;-75
2022/01/18 05:13:38;;;;;;;;;19.75;16.00;;;;;21.51;45.88;102872.25;5079987;27;45511;-75
2022/01/18 05:23:51;;;;;;;;;19.25;16.75;;;;;21.53;45.57;102883.75;5060033;28;45461;-75
2022/01/18 05:26:17;;;;;;;;;17.75;15.75;;;;;21.54;45.82;102872.22;5059828;28;45402;-76
2022/01/18 05:28:42;;;;;;;;;17.25;14.50;;;;;21.55;45.52;102882.00;5059647;28;48032;-77
2022/01/18 05:31:08;;;;;;;;;18.75;14.50;;;;;21.57;45.63;102882.88;5076741;28;45454;-77
2022/01/18 05:33:33;;;;;;;;;17.25;15.50;;;;;21.57;45.67;102877.53;5059609;28;45715;-76
2022/01/18 05:35:59;;;;;;;;;15.75;15.00;;;;;21.57;45.45;102875.78;5059705;28;45284;-77
2022/01/18 05:38:24;;;;;;;;;16.00;13.50;;;;;21.58;45.56;102872.22;5059269;28;53171;-76
2022/01/18 05:40:50;;;;;;;;;16.25;13.75;;;;;21.59;45.37;102863.34;5079816;28;45413;-77
2022/01/18 05:43:16;;;;;;;;;16.25;15.50;;;;;21.59;45.54;102866.00;5042949;28;45268;-77
2022/01/18 05:45:41;;;;;;;;;16.50;15.25;;;;;21.61;45.69;102858.91;5042863;28;45631;-76
2022/01/18 05:48:07;;;;;;;;;17.00;13.00;;;;;21.62;45.28;102859.78;5045757;28;46625;-77
2022/01/18 05:50:32;;;;;;;;;15.50;14.75;;;;;21.61;46.31;102847.41;5066221;28;45588;-77
2022/01/18 05:52:57;;;;;;;;;17.75;15.00;;;;;21.66;46.94;102850.94;5079825;28;45507;-73
2022/01/18 05:55:23;;;;;;;;;19.75;18.25;;;;;21.68;46.49;102859.78;5061915;28;63193;-73
2022/01/18 05:57:48;;;;;;;;;17.00;14.50;;;;;21.70;47.48;102858.88;5062372;28;57157;-74
2022/01/18 06:00:22;;;;;;;;;13.75;13.75;;;;;21.77;47.21;102854.44;5080526;27;53614;-75
2022/01/18 06:03:00;;;;;;;;;18.00;15.50;;;;;21.84;48.65;102861.50;5058994;28;45374;-73
2022/01/18 06:08:10;;;;;;;;;19.00;14.50;;;;;21.90;47.89;102857.97;5079607;28;45677;-73
2022/01/18 06:10:36;;;;;;;;;17.00;16.25;;;;;21.95;47.55;102857.03;5079370;28;45275;-71
2022/01/18 06:13:02;;;;;;;;;21.00;16.00;;;;;21.99;46.99;102860.56;5065644;28;45405;-75
2022/01/18 06:15:27;;;;;;;;;19.50;15.75;;;;;22.02;46.08;102855.22;5062430;28;45481;-78
2022/01/18 06:17:53;;;;;;;;;17.75;16.50;;;;;22.05;46.86;102859.63;5077622;28;48175;-77
2022/01/18 06:20:18;;;;;;;;;16.50;13.50;;;;;22.06;46.74;102856.09;5082464;27;45511;-74
2022/01/18 06:22:43;;;;;;;;;17.00;14.50;;;;;22.09;46.57;102882.72;5065118;27;45820;-75
2022/01/18 06:25:09;;;;;;;;;21.00;14.50;;;;;22.08;46.41;102880.97;5059284;28;45541;-74
2022/01/18 06:27:34;;;;;;;;;16.75;14.00;;;;;22.09;46.60;102877.41;5060135;28;45312;-77
2022/01/18 06:30:00;;;;;;;;;16.25;12.75;;;;;22.10;46.46;102879.16;5058769;28;45313;-75
2022/01/18 06:32:25;;;;;;;;;18.25;15.50;;;;;;;;5058442;28;52240;-74
2022/01/18 06:34:51;;;;;;;;;17.75;14.00;;;;;22.09;45.79;102877.41;5059713;28;45417;-75
2022/01/18 06:37:16;;;;;;;;;13.50;13.25;;;;;22.09;46.35;102866.75;5058682;28;46657;-74
2022/01/18 06:39:42;;;;;;;;;19.25;16.75;;;;;22.08;46.01;102879.19;5060204;28;45431;-75
2022/01/18 06:42:10;;;;;;;;;17.00;13.50;;;;;22.08;46.35;102878.28;5059386;28;45301;-75
2022/01/18 06:44:36;;;;;;;;;19.25;16.00;;;;;22.08;46.17;102878.28;5058534;28;45215;-75
2022/01/18 06:47:01;;;;;;;;;15.25;13.75;;;;;22.07;46.05;102885.41;5059735;28;46329;-75
2022/01/18 06:49:26;;;;;;;;;17.75;13.00;;;;;22.06;45.95;102882.69;5058389;28;45313;-74
2022/01/18 06:51:52;;;;;;;;;14.00;13.00;;;;;22.06;46.23;102885.34;5041614;28;52712;-75
2022/01/18 06:54:18;;;;;;;;;16.50;12.50;;;;;22.06;45.59;102885.34;5041685;28;45433;-75
2022/01/18 06:56:47;;;;;;;;;21.75;15.00;;;;;22.06;46.00;102885.34;5042066;28;46040;-76
2022/01/18 06:59:13;;;;;;;;;16.00;13.75;;;;;22.05;45.72;102887.13;5042261;28;45381;-86
2022/01/18 07:01:38;;;;;;;;;12.50;11.50;;;;;22.05;45.84;102880.91;5042208;28;45280;-79
2022/01/18 07:04:04;;;;;;;;;16.25;14.50;;;;;22.06;45.33;102888.88;5061825;28;45516;-79
2022/01/18 07:06:29;;;;;;;;;16.50;13.75;;;;;22.07;45.11;102889.78;5028392;28;48155;-80
2022/01/18 07:08:55;;;;;;;;;14.25;14.25;;;;;22.07;45.37;102889.78;5033921;28;45661;-77
2022/01/18 07:11:20;;;;;;;;;18.00;12.50;;;;;22.06;45.58;102878.25;5063707;28;45188;-78
2022/01/18 07:13:46;;;;;;;;;15.00;13.00;;;;;22.06;45.22;102882.69;5061774;28;45255;-79
2022/01/18 07:16:11;;;;;;;;;15.00;13.00;;;;;22.05;45.35;102883.56;5041420;28;54358;-79
2022/01/18 07:18:37;;;;;;;;;15.25;14.25;;;;;22.04;45.37;102876.50;5061651;28;45278;-78
2022/01/18 07:21:02;;;;;;;;;20.25;14.75;;;;;22.05;45.34;102872.94;5076887;28;50666;-78
2022/01/18 07:23:27;;;;;;;;;16.00;14.50;;;;;22.02;45.87;102874.72;5083064;27;45257;-76
2022/01/18 07:25:53;;;;;;;;;19.00;15.75;;;;;22.04;45.75;102879.16;5081527;28;46304;-76
2022/01/18 07:28:19;;;;;;;;;14.25;13.25;;;;;22.02;45.91;102880.03;5081584;28;45440;-75
2022/01/18 07:30:44;;;;;;;;;14.75;12.25;;;;;22.04;45.75;102873.84;5064856;28;45440;-76
2022/01/18 07:33:12;;;;;;;;;15.75;13.25;;;;;22.04;45.80;102868.50;5064546;28;45386;-76
2022/01/18 07:35:38;;;;;;;;;17.00;14.50;;;;;22.02;45.88;102861.44;5082793;28;45619;-76
2022/01/18 07:38:04;;;;;;;;;16.50;12.00;;;;;22.02;45.94;102856.13;5061034;28;45990;-79
2022/01/18 07:40:29;;;;;;;;;16.00;13.50;;;;;22.00;46.13;102855.25;5076843;28;45362;-78
2022/01/18 07:42:55;;;;;;;;;11.25;10.25;;;;;22.01;45.59;102867.66;5081569;28;45301;-79
2022/01/18 07:45:23;;;;;;;;;14.75;12.75;;;;;21.99;45.73;102856.13;5081677;28;45436;-79
2022/01/18 07:47:49;;;;;;;;;16.50;13.00;;;;;21.98;45.96;102843.75;5082470;27;45430;-81
2022/01/18 07:50:14;;;;;;;;;15.00;12.50;;;;;21.98;45.86;102851.72;5082474;27;45414;-79
2022/01/18 07:52:40;;;;;;;;;13.50;13.25;;;;;21.97;46.18;102857.91;5099245;27;45440;-80
2022/01/18 07:55:06;;;;;;;;;17.25;14.00;;;;;21.98;45.94;102858.81;5065021;28;46306;-80
2022/01/18 07:57:31;;;;;;;;;14.00;12.25;;;;;21.94;46.18;102852.59;5047363;28;45417;-82
2022/01/18 07:59:56;;;;;;;;;17.00;15.25;;;;;21.96;45.34;102866.75;5063085;28;45841;-85
2022/01/18 08:02:22;;;;;;;;;14.00;14.00;;;;;21.96;45.98;102866.75;5060963;28;45378;-82
2022/01/18 08:04:48;;;;;;;;;18.00;12.50;;;;;21.95;46.12;102865.00;5081397;28;46226;-80
2022/01/18 08:07:13;;;;;;;;;13.75;13.00;;;;;21.96;45.58;102853.47;5081425;28;45291;-80
2022/01/18 08:09:39;;;;;;;;;18.50;16.75;;;;;21.92;46.29;102854.38;5082167;28;45310;-80
2022/01/18 08:12:05;;;;;;;;;14.25;12.50;;;;;21.93;46.18;102845.53;5072956;28;45539;-81
2022/01/18 08:14:32;;;;;;;;;17.25;15.50;;;;;21.93;46.13;102845.53;5074650;28;46208;-82
2022/01/18 08:17:00;;;;;;;;;10.50;9.25;;;;;21.91;46.16;102844.66;5044280;28;45487;-81
2022/01/18 08:19:29;;;;;;;;;13.25;10.75;;;;;21.90;45.81;102842.00;5045438;28;45831;-80
2022/01/18 08:21:54;;;;;;;;;17.50;11.25;;;;;21.90;46.13;102834.91;5080854;28;45276;-82
2022/01/18 08:24:20;;;;;;;;;15.25;14.00;;;;;21.91;45.76;102831.34;5061853;28;46428;-82
2022/01/18 08:26:45;;;;;;;;;18.25;13.25;;;;;21.92;46.15;102835.78;5064010;27;45267;-81
2022/01/18 08:29:13;;;;;;;;;17.25;14.25;;;;;21.91;46.19;102838.44;5080714;28;45508;-81
2022/01/18 08:31:42;;;;;;;;;17.50;13.75;;;;;21.93;46.40;102836.66;5082071;27;45452;-82
2022/01/18 08:34:08;;;;;;;;;16.00;13.50;;;;;21.95;46.04;102843.72;5063400;28;46238;-80
2022/01/18 08:36:33;;;;;;;;;12.75;12.75;;;;;21.93;46.00;102844.63;5064046;28;45422;-80
2022/01/18 08:39:00;;;;;;;;;14.50;12.00;;;;;21.93;46.57;102850.84;5050405;28;45344;-81
2022/01/18 08:41:26;;;;;;;;;20.00;15.50;;;;;21.97;46.22;102852.56;5060786;28;45529;-81
2022/01/18 08:43:52;;;;;;;;;21.00;15.00;;;;;21.99;46.05;102849.94;5076475;28;45554;-81
2022/01/18 08:46:17;;;;;;;;;18.75;14.50;;;;;21.98;45.90;102850.84;5063684;28;45268;-81
2022/01/18 08:48:43;;;;;;;;;16.75;13.50;;;;;21.99;45.96;102847.28;5045806;28;45710;-80
2022/01/18 08:51:08;;;;;;;;;16.00;13.75;;;;;21.98;45.91;102845.50;5059925;28;45449;-80
2022/01/18 08:53:35;;;;;;;;;17.25;16.00;;;;;21.99;46.33;102845.50;5077576;28;46538;-85
2022/01/18 08:56:01;;;;;;;;;16.50;13.75;;;;;22.01;45.98;102850.81;5055178;28;45525;-82
2022/01/18 08:58:26;;;;;;;;;17.75;15.50;;;;;22.00;46.46;102841.94;5044201;28;45465;-84
2022/01/18 09:00:52;;;;;;;;;16.50;15.50;;;;;22.02;45.91;102849.91;5060930;28;45484;-84
2022/01/18 09:03:18;;;;;;;;;15.50;13.00;;;;;22.02;46.66;102841.94;5042675;28;46552;-82
2022/01/18 09:05:45;;;;;;;;;17.50;15.75;;;;;22.04;46.32;102844.56;5032379;28;45299;-84
2022/01/18 09:08:12;;;;;;;;;17.25;13.25;;;;;22.02;46.55;102841.94;5041900;28;45342;-83
2022/01/18 09:10:37;;;;;;;;;16.00;14.25;;;;;22.05;46.16;102844.56;5043521;28;45435;-81
2022/01/18 09:13:03;;;;;;;;;16.75;12.25;;;;;22.06;46.57;102841.00;5059323;28;46080;-82
2022/01/18 09:15:29;;;;;;;;;20.25;18.25;;;;;22.12;45.96;102848.13;5063392;28;45533;-83
2022/01/18 09:17:54;;;;;;;;;20.50;17.00;;;;;22.15;45.83;102842.78;5063820;28;45559;-85
2022/01/18 09:20:20;;;;;;;;;18.75;17.75;;;;;22.18;45.73;102840.13;5043731;28;45394;-86
2022/01/18 09:22:46;;;;;;;;;19.50;17.00;;;;;22.24;45.79;102835.66;5059078;28;46172;-87
2022/01/18 09:25:20;;;;;;;;;21.00;17.50;;;;;22.26;45.52;102831.19;5062633;27;45398;-86
2022/01/18 09:27:46;;;;;;;;;17.50;16.00;;;;;22.26;45.57;102835.63;5047036;28;45339;-84
2022/01/18 09:30:13;;;;;;;;;19.75;19.50;;;;;22.33;45.61;102831.13;5042991;28;46228;-86
2022/01/18 09:32:38;;;;;;;;;17.25;16.75;;;;;22.36;45.71;102828.47;5040463;28;47798;-87
2022/01/18 09:35:06;;;;;;;;;15.25;15.25;;;;;22.35;45.92;102819.63;5053714;28;45344;-85
2022/01/18 09:37:32;;;;;;;;;21.25;19.50;;;;;22.38;45.65;102826.69;5043199;28;45299;-85
2022/01/18 09:39:57;;;;;;;;;17.75;15.75;;;;;22.40;46.08;102815.13;5036709;28;45327;-86
2022/01/18 09:42:24;;;;;;;;;17.75;15.50;;;;;22.46;45.68;102824.84;5079385;28;47140;-82
2022/01/18 09:44:49;;;;;;;;;18.50;15.25;;;;;22.49;45.51;102828.38;5043055;28;45724;-86
2022/01/18 09:47:16;;;;;;;;;18.75;13.75;;;;;22.51;45.96;102823.94;5043103;28;45273;-83
2022/01/18 09:49:41;;;;;;;;;19.25;16.00;;;;;22.51;45.29;102823.94;5042615;28;45398;-81
2022/01/18 09:52:07;;;;;;;;;18.00;15.75;;;;;22.52;45.30;102823.03;5076666;28;45292;-81
2022/01/18 09:54:32;;;;;;;;;19.50;14.75;;;;;22.57;45.61;102834.53;5042326;28;45515;-81
2022/01/18 09:56:58;;;;;;;;;16.75;16.25;;;;;22.60;45.64;102819.44;5076336;28;45463;-81
2022/01/18 09:59:23;;;;;;;;;21.00;18.50;;;;;22.62;45.39;102841.59;5079409;28;45531;-81
2022/01/18 10:01:48;;;;;;;;;15.00;14.50;;;;;22.64;45.05;102834.50;5061310;28;65808;-79
2022/01/18 10:04:26;;;;;;;;;19.75;14.75;;;;;22.62;45.67;102831.84;5070548;27;52813;-84
2022/01/18 10:06:58;;;;;;;;;17.00;14.75;;;;;22.61;45.57;102818.56;5027978;28;45302;-81
2022/01/18 10:09:24;;;;;;;;;17.00;15.25;;;;;22.64;45.10;102831.81;5035504;28;45459;-78
2022/01/18 10:12:03;;;;;;;;;17.25;16.00;;;;;22.61;45.16;102819.44;5077744;28;45337;-86
2022/01/18 10:14:29;;;;;;;;;18.25;17.00;;;;;22.58;45.48;102822.97;5043142;28;45605;-80
2022/01/18 10:16:55;;;;;;;;;19.75;17.75;;;;;22.54;45.45;102826.56;5073070;27;45335;-81
2022/01/18 10:19:46;;;;;;;;;17.50;15.75;;;;;22.54;45.48;102812.38;5075632;28;45512;-82
2022/01/18 10:22:14;;;;;;;;;21.50;15.50;;;;;22.56;45.23;102821.22;5063918;28;46398;-75
2022/01/18 10:24:39;;;;;;;;;18.75;14.25;;;;;22.53;45.50;102822.16;5081079;28;45299;-90
2022/01/18 10:27:05;;;;;;;;;16.50;16.25;;;;;22.51;45.58;102818.63;5063564;27;45421;-84
2022/01/18 10:29:32;;;;;;;;;21.00;19.75;;;;;22.54;45.18;102818.59;5061056;27;45564;-86
2022/01/18 10:31:58;;;;;;;;;21.00;19.00;;;;;22.52;45.56;102808.84;5051060;28;45326;-87
2022/01/18 10:37:14;;;;;;;;;16.75;15.50;;;;;22.56;45.16;102799.94;5072566;28;45223;-86
2022/01/18 10:39:41;;;;;;;;;20.25;17.00;;;;;22.52;45.16;102792.88;5063011;28;45324;-86
2022/01/18 10:42:35;;;;;;;;;18.50;17.00;;;;;22.48;45.07;102786.69;5045236;28;48023;-89
2022/01/18 10:45:13;;;;;;;;;11.50;11.50;;;;;22.48;45.44;102786.69;5043918;28;45467;-87
2022/01/18 10:48:10;;;;;;;;;20.75;16.50;;;;;22.46;45.16;102775.19;5046243;28;45439;-86
2022/01/18 10:50:36;;;;;;;;;17.25;15.25;;;;;22.47;45.43;102774.28;5063325;28;45425;-82
2022/01/18 10:53:19;;;;;;;;;19.50;18.25;;;;;22.49;45.70;102768.94;5058194;28;46049;-75
2022/01/18 10:55:46;;;;;;;;;17.25;15.00;;;;;22.51;45.64;102770.72;5046035;28;45341;-82
2022/01/18 10:58:12;;;;;;;;;17.25;15.75;;;;;22.52;45.44;102760.97;5079129;28;45338;-81
2022/01/18 11:00:38;;;;;;;;;19.75;15.75;;;;;22.53;45.65;102760.94;5041871;28;45275;-82
2022/01/18 11:03:07;;;;;;;;;19.75;16.00;;;;;22.51;45.61;102757.41;5059656;28;45219;-83
2022/01/18 11:05:36;;;;;;;;;21.50;16.25;;;;;22.51;45.01;102751.22;5064360;28;45368;-83
2022/01/18 11:08:04;;;;;;;;;16.25;14.50;;;;;22.48;45.07;102744.13;5044328;28;45293;-83
2022/01/18 11:10:40;;;;;;;;;19.00;15.00;;;;;22.49;45.03;102748.53;5041728;28;45725;-83
2022/01/18 11:13:11;;;;;;;;;15.50;15.25;;;;;22.50;45.03;102749.41;5041480;28;47002;-82
2022/01/18 11:15:42;;;;;;;;;18.75;16.50;;;;;22.48;45.23;102743.22;5042707;28;45284;-82
2022/01/18 11:18:16;;;;;;;;;15.50;14.75;;;;;22.47;45.55;102742.34;5042740;28;45399;-82
2022/01/18 11:20:45;;;;;;;;;18.25;16.75;;;;;22.44;45.45;102734.41;5058373;28;45470;-82
2022/01/18 11:23:10;;;;;;;;;18.00;16.50;;;;;22.41;45.40;102726.44;5057866;28;46925;-82
2022/01/18 11:25:37;;;;;;;;;17.00;15.50;;;;;22.43;44.53;102722.00;5061477;28;45354;-73
2022/01/18 11:28:03;;;;;;;;;17.00;13.00;;;;;22.31;42.66;102702.59;5079599;28;45227;-74
2022/01/18 11:30:31;;;;;;;;;16.75;13.00;;;;;22.15;43.02;102707.13;5079583;27;45631;-75
2022/01/18 11:32:57;;;;;;;;;18.00;15.75;;;;;22.01;42.78;102702.78;5077950;28;45394;-73
2022/01/18 11:35:29;;;;;;;;;17.25;13.25;;;;;21.95;42.50;102702.81;5077652;28;45647;-72
2022/01/18 11:37:54;;;;;;;;;15.75;15.25;;;;;21.88;42.48;102697.53;5062177;28;45476;-73
2022/01/18 11:40:20;;;;;;;;;15.50;14.00;;;;;21.81;41.72;102690.53;5074773;28;45749;-72
2022/01/18 11:42:55;;;;;;;;;16.00;13.50;;;;;21.73;41.23;102690.56;5078092;28;46294;-74
2022/01/18 11:45:31;;;;;;;;;14.50;11.00;;;;;21.66;41.49;102680.88;5075864;28;45482;-71
2022/01/18 11:48:16;;;;;;;;;14.00;12.00;;;;;21.61;42.19;102680.88;5041809;28;45348;-72
2022/01/18 11:50:44;;;;;;;;;13.50;13.50;;;;;21.56;41.52;102687.13;5080913;28;45449;-72
2022/01/18 11:53:24;;;;;;;;;13.50;10.50;;;;;21.50;41.43;102681.84;5064513;28;46675;-72
2022/01/18 11:55:51;;;;;;;;;17.75;16.00;;;;;21.42;41.26;102673.91;5081376;28;45543;-73
2022/01/18 11:58:17;;;;;;;;;15.25;11.50;;;;;21.33;41.16;102666.84;5080789;27;45350;-72
2022/01/18 12:00:57;;;;;;;;;14.25;13.00;;;;;21.30;40.93;102661.56;5063764;28;62688;-73
2022/01/18 12:03:27;;;;;;;;;17.00;13.25;;;;;21.27;41.27;102663.34;5077730;28;45345;-73
2022/01/18 12:05:58;;;;;;;;;16.25;13.00;;;;;21.22;40.41;102665.13;5060527;28;45398;-72
2022/01/18 12:08:29;;;;;;;;;13.75;11.75;;;;;21.19;41.10;102652.72;5080477;28;45408;-73
2022/01/18 12:10:55;;;;;;;;;14.50;11.75;;;;;21.15;41.24;102658.94;5082435;27;45247;-72
2022/01/18 12:13:24;;;;;;;;;12.25;12.25;;;;;21.14;40.05;102654.53;5080617;28;46826;-72
2022/01/18 12:15:50;;;;;;;;;17.00;14.00;;;;;21.11;40.59;102646.56;5077302;28;45391;-72
2022/01/18 12:18:20;;;;;;;;;15.50;12.50;;;;;21.08;40.36;102642.16;5080688;28;45411;-73
2022/01/18 12:20:49;;;;;;;;;10.25;10.25;;;;;21.05;40.77;102634.19;5081050;28;45283;-74
2022/01/18 12:23:18;;;;;;;;;12.50;11.00;;;;;21.03;40.74;102636.00;5047199;28;47284;-73
2022/01/18 12:26:13;;;;;;;;;14.50;13.50;;;;;21.01;40.53;102636.88;5063649;28;45276;-73